Queen Isabella — A8IE2 — position and weather

sailwx.info

Track history (hours):
 
Tides and Currents Weather Stations Pressure Air Temp Water Temp Dewpoint Dewpoint Depression Visibility Wind Speed Wind Dir Waves Ship Positions

Queen Isabella

Last reported at 2016-Sep-01 04:33 UTC. Time now 2016-Sep-01 05:39 UTC.
Position N 54°40' W 001°01'.

Length 131 m; draft 6.1 m.

Type: Ship. MMSI: 636090959.

Date/timePositionNaut miles runAvg speedWind from/ knotsBaromVisibWave heightAir tempDewpointWater temp
2016-Sep-01 04:33N 54°40' W 001°01'2 0.1
2016-Aug-31 00:33N 54°41' W 001°04'2713.5
2016-Aug-30 22:33N 54°33' W 000°19'1514.7
2016-Aug-30 21:33N 54°24' E 000°01'1514.7
2016-Aug-30 20:33N 54°15' E 000°21'1414.5
2016-Aug-30 19:34N 54°06' E 000°41'1413.8
2016-Aug-30 18:31N 53°57' E 000°60'1512.8
2016-Aug-30 17:22N 53°48' E 001°19'1012.2
2016-Aug-30 16:32N 53°41' E 001°31'1212.2
2016-Aug-30 15:33N 53°32' E 001°44'1313.3
2016-Aug-30 14:34N 53°21' E 001°58'1615.8
2016-Aug-30 13:34N 53°10' E 002°17'1615.9
2016-Aug-30 12:33N 52°59' E 002°35'1514.6
2016-Aug-30 11:34N 52°45' E 002°42'1515.1
2016-Aug-30 10:34N 52°30' E 002°40'1414.3
2016-Aug-30 09:33N 52°15' E 002°41'1313.4
2016-Aug-30 08:33N 52°02' E 002°38'1312.8
2016-Aug-30 07:33N 51°49' E 002°38'1313.0
2016-Aug-30 06:33N 51°39' E 002°26'1312.8
2016-Aug-30 05:33N 51°29' E 002°13'1312.8
2016-Aug-30 04:33N 51°17' E 002°06'1312.9
2016-Aug-30 03:33N 51°09' E 001°50'1413.5
2016-Aug-30 02:33N 50°60' E 001°34'1414.4
2016-Aug-30 01:33N 50°47' E 001°24'1414.2
2016-Aug-30 00:33N 50°36' E 001°10'2814.0
2016-Aug-29 22:34N 50°26' E 000°29'1514.5
2016-Aug-29 21:33N 50°22' E 000°07'1515.1
2016-Aug-29 20:33N 50°18' W 000°16'1616.0
2016-Aug-29 19:33N 50°14' W 000°40'1816.9
2016-Aug-29 18:30N 50°08' W 001°07'3817.5
2016-Aug-29 16:19N 49°58' W 002°04'1216.2
2016-Aug-29 15:33N 49°55' W 002°22'1515.2
2016-Aug-29 14:33N 49°50' W 002°45'1514.6
2016-Aug-29 13:33N 49°44' W 003°05'1414.2
2016-Aug-29 12:34N 49°37' W 003°24'4213.9
2016-Aug-29 09:33N 49°16' W 004°20'1413.5
2016-Aug-29 08:31N 49°09' W 004°38'2613.2
2016-Aug-29 06:33N 48°56' W 005°12'1212.4
2016-Aug-29 05:33N 48°50' W 005°28'1212.0
2016-Aug-29 04:33N 48°41' W 005°41'58613.9
2016-Aug-27 10:17N 39°25' W 009°56'1013.7
2016-Aug-27 09:33N 39°15' W 009°56'1414.3
2016-Aug-27 08:34N 39°01' W 009°56'1414.3
2016-Aug-27 07:33N 38°46' W 009°57'1414.1
2016-Aug-27 06:33N 38°32' W 009°53'4413.9
2016-Aug-27 03:25N 37°50' W 009°41'1414.3
2016-Aug-27 02:27N 37°37' W 009°37'2914.3
2016-Aug-27 00:26N 37°09' W 009°29'1414.1
2016-Aug-26 23:25N 36°55' W 009°25'19514.0
2016-Aug-26 09:34N 35°59' W 005°33'1212.3
2016-Aug-26 08:33N 36°07' W 005°21'0 0.1
2016-Aug-26 06:30N 36°07' W 005°21'0 0.1
2016-Aug-26 04:24N 36°07' W 005°22'0 0.0
2016-Aug-26 03:33N 36°07' W 005°22'0 0.1
2016-Aug-26 02:33N 36°07' W 005°21'0 0.0
2016-Aug-26 01:33N 36°07' W 005°21'0 0.0
2016-Aug-26 00:33N 36°07' W 005°21'0 0.2
2016-Aug-25 23:33N 36°07' W 005°21'0 0.0
2016-Aug-25 22:27N 36°07' W 005°21'0 0.0
2016-Aug-25 21:30N 36°07' W 005°21'0 0.0
2016-Aug-25 20:24N 36°07' W 005°21'1 0.9
2016-Aug-25 19:33N 36°06' W 005°22'10 4.5
2016-Aug-25 17:23N 36°09' W 005°10'1 0.6
2016-Aug-25 15:19N 36°08' W 005°11'23713.3
2016-Aug-24 21:25N 36°45' W 000°20'4214.5
2016-Aug-24 18:31N 36°54' E 000°32'1414.8
2016-Aug-24 17:33N 36°57' E 000°49'1514.6
2016-Aug-24 16:33N 37°00' E 001°07'1514.6
2016-Aug-24 15:32N 37°04' E 001°25'10314.6
2016-Aug-24 08:29N 37°20' E 003°33'1314.3
2016-Aug-24 07:33N 37°19' E 003°49'7414.9
2016-Aug-24 02:33N 37°18' E 005°23'1915.0
2016-Aug-24 01:16N 37°17' E 005°47'  
Track history (hours):
 
Tides and Currents Weather Stations Pressure Air Temp Water Temp Dewpoint Dewpoint Depression Visibility Wind Speed Wind Dir Waves Ship Positions

Queen Isabella

Last reported at 2016-Sep-01 04:33 UTC. Time now 2016-Sep-01 05:39 UTC.
Position N 54°40' W 001°01'.

Length 131 m; draft 6.1 m.

Type: Ship. MMSI: 636090959.

Date/timePositionNaut miles runAvg speedWind from/ knotsBaromVisibWave heightAir tempDewpointWater temp
2016-Sep-01 04:33N 54°40' W 001°01'2 0.1
2016-Aug-31 00:33N 54°41' W 001°04'2713.5
2016-Aug-30 22:33N 54°33' W 000°19'1514.7
2016-Aug-30 21:33N 54°24' E 000°01'1514.7
2016-Aug-30 20:33N 54°15' E 000°21'1414.5
2016-Aug-30 19:34N 54°06' E 000°41'1413.8
2016-Aug-30 18:31N 53°57' E 000°60'1512.8
2016-Aug-30 17:22N 53°48' E 001°19'1012.2
2016-Aug-30 16:32N 53°41' E 001°31'1212.2
2016-Aug-30 15:33N 53°32' E 001°44'1313.3
2016-Aug-30 14:34N 53°21' E 001°58'1615.8
2016-Aug-30 13:34N 53°10' E 002°17'1615.9
2016-Aug-30 12:33N 52°59' E 002°35'1514.6
2016-Aug-30 11:34N 52°45' E 002°42'1515.1
2016-Aug-30 10:34N 52°30' E 002°40'1414.3
2016-Aug-30 09:33N 52°15' E 002°41'1313.4
2016-Aug-30 08:33N 52°02' E 002°38'1312.8
2016-Aug-30 07:33N 51°49' E 002°38'1313.0
2016-Aug-30 06:33N 51°39' E 002°26'1312.8
2016-Aug-30 05:33N 51°29' E 002°13'1312.8
2016-Aug-30 04:33N 51°17' E 002°06'1312.9
2016-Aug-30 03:33N 51°09' E 001°50'1413.5
2016-Aug-30 02:33N 50°60' E 001°34'1414.4
2016-Aug-30 01:33N 50°47' E 001°24'1414.2
2016-Aug-30 00:33N 50°36' E 001°10'2814.0
2016-Aug-29 22:34N 50°26' E 000°29'1514.5
2016-Aug-29 21:33N 50°22' E 000°07'1515.1
2016-Aug-29 20:33N 50°18' W 000°16'1616.0
2016-Aug-29 19:33N 50°14' W 000°40'1816.9
2016-Aug-29 18:30N 50°08' W 001°07'3817.5
2016-Aug-29 16:19N 49°58' W 002°04'1216.2
2016-Aug-29 15:33N 49°55' W 002°22'1515.2
2016-Aug-29 14:33N 49°50' W 002°45'1514.6
2016-Aug-29 13:33N 49°44' W 003°05'1414.2
2016-Aug-29 12:34N 49°37' W 003°24'4213.9
2016-Aug-29 09:33N 49°16' W 004°20'1413.5
2016-Aug-29 08:31N 49°09' W 004°38'2613.2
2016-Aug-29 06:33N 48°56' W 005°12'1212.4
2016-Aug-29 05:33N 48°50' W 005°28'1212.0
2016-Aug-29 04:33N 48°41' W 005°41'58613.9
2016-Aug-27 10:17N 39°25' W 009°56'1013.7
2016-Aug-27 09:33N 39°15' W 009°56'1414.3
2016-Aug-27 08:34N 39°01' W 009°56'1414.3
2016-Aug-27 07:33N 38°46' W 009°57'1414.1
2016-Aug-27 06:33N 38°32' W 009°53'4413.9
2016-Aug-27 03:25N 37°50' W 009°41'1414.3
2016-Aug-27 02:27N 37°37' W 009°37'2914.3
2016-Aug-27 00:26N 37°09' W 009°29'1414.1
2016-Aug-26 23:25N 36°55' W 009°25'19514.0
2016-Aug-26 09:34N 35°59' W 005°33'1212.3
2016-Aug-26 08:33N 36°07' W 005°21'0 0.1
2016-Aug-26 06:30N 36°07' W 005°21'0 0.1
2016-Aug-26 04:24N 36°07' W 005°22'0 0.0
2016-Aug-26 03:33N 36°07' W 005°22'0 0.1
2016-Aug-26 02:33N 36°07' W 005°21'0 0.0
2016-Aug-26 01:33N 36°07' W 005°21'0 0.0
2016-Aug-26 00:33N 36°07' W 005°21'0 0.2
2016-Aug-25 23:33N 36°07' W 005°21'0 0.0
2016-Aug-25 22:27N 36°07' W 005°21'0 0.0
2016-Aug-25 21:30N 36°07' W 005°21'0 0.0
2016-Aug-25 20:24N 36°07' W 005°21'1 0.9
2016-Aug-25 19:33N 36°06' W 005°22'10 4.5
2016-Aug-25 17:23N 36°09' W 005°10'1 0.6
2016-Aug-25 15:19N 36°08' W 005°11'23713.3
2016-Aug-24 21:25N 36°45' W 000°20'4214.5
2016-Aug-24 18:31N 36°54' E 000°32'1414.8
2016-Aug-24 17:33N 36°57' E 000°49'1514.6
2016-Aug-24 16:33N 37°00' E 001°07'1514.6
2016-Aug-24 15:32N 37°04' E 001°25'10314.6
2016-Aug-24 08:29N 37°20' E 003°33'1314.3
2016-Aug-24 07:33N 37°19' E 003°49'7414.9
2016-Aug-24 02:33N 37°18' E 005°23'1915.0
2016-Aug-24 01:16N 37°17' E 005°47'  

Dump ship's entire track history